Announcement

Collapse
No announcement yet.

Shut up Emu

Collapse
X
 
  • Filter
  • Time
  • Show
Clear All
new posts

  • Shut up Emu

    KGFK 121753Z 32010KT 10SM FEW250 M26/M31 A3062 RMK AO2 SLP404 4/001 T12561306 11256 21289 50009

    it was -20F when I walked to class this morning...man, I must have smoked some good shit in Durango to think ND would be a good place to go to school. Seriously though, in my fir coat, neckwarmer, stocking cap, and thick gloves, as well as the long underwear, I was nice and toasty.

    Which can't be said for some of the poor souls I was walking with.



  • #2
    W29 121815Z AUTO 10SM SCT090 12/02 A3037 RMK AO1

    *points and laughs*

    Comment


    • #3
      My buddy got back from Saskatoon last night (the 11th). It was -41c when he left and +9 in YYZ when he arrived.

      I told him we no longer wear coats and boots in southern Ontario.

      Comment


      • #4
        Dallas at 1400 CST: 65F and cloudy

        Dallas in 24 hours: 32F with freezing rain
        Follow me on Twitter! www.twitter.com/flyingphotog

        Comment


        • #5


          (shudders in a corner)
          Follow me on Twitter! www.twitter.com/flyingphotog

          Comment


          • #6
            Originally posted by FlyingPhotog


            (shudders in a corner)
            Those temps look pretty good right now.

            Comment


            • #7
              Originally posted by FlyingPhotog


              (shudders in a corner)


              KATL 122252Z 11005KT 10SM FEW055 BKN150 BKN250 17/09 A3042 RMK AO2 SLP301 T01670089

              Comment

              Working...
              X